CDT,Max TemperatureF,Mean TemperatureF,Min TemperatureF,Max Dew PointF,MeanDew PointF,Min DewpointF,Max Humidity, Mean Humidity, Min Humidity, Max Sea Level PressureIn, Mean Sea Level PressureIn, Min Sea Level PressureIn, Max VisibilityMiles, Mean VisibilityMiles, Min VisibilityMiles, Max Wind SpeedMPH, Mean Wind SpeedMPH, Max Gust SpeedMPH,PrecipitationIn, CloudCover, Events, WindDirDegrees
2012-10-1,69,56,44,52,42,34,82,59,35,30.07,30.01,29.92,10,10,10,24,8,31,0.03,3,,314
2012-10-2,73,52,30,37,30,27,86,47,18,30.04,29.95,29.85,10,10,9,12,5,16,0.00,0,,214
2012-10-3,82,62,42,43,36,25,58,39,21,30.01,29.84,29.73,10,10,10,24,8,31,0.00,0,,177
2012-10-4,55,45,35,37,31,25,71,53,36,30.35,30.23,30.03,10,10,10,26,18,40,0.00,3,,309
2012-10-5,51,40,30,27,23,18,75,52,30,30.36,30.31,30.27,10,10,10,18,8,25,0.00,1,,296
2012-10-6,46,35,24,21,19,14,69,50,37,30.40,30.34,30.31,10,10,10,17,7,24,0.00,1,,311
2012-10-7,57,38,19,28,22,10,80,54,29,30.31,30.16,29.99,10,10,10,17,6,24,0.00,0,,228
2012-10-8,77,58,39,32,28,23,70,41,15,29.99,29.86,29.75,10,10,10,18,10,26,0.00,0,,225
2012-10-9,55,44,32,39,27,16,75,47,25,30.16,29.98,29.81,10,10,10,26,8,32,0.00,1,,308
2012-10-10,66,44,23,30,23,16,74,45,24,30.23,30.13,30.01,10,10,10,18,6,24,0.00,0,,223
2012-10-11,60,50,39,34,27,21,56,43,33,30.36,30.12,29.97,10,10,10,25,12,32,0.00,0,,335
2012-10-12,53,42,30,39,24,18,62,48,26,30.37,30.23,29.99,10,10,10,16,10,22,0.00,4,,109
2012-10-13,75,63,51,61,53,41,88,74,53,29.98,29.74,29.63,10,10,4,18,10,24,0.84,4,Thunderstorm,179
2012-10-14,69,56,44,45,38,36,76,53,31,29.99,29.90,29.67,10,10,10,25,14,30,0.00,0,,309
2012-10-15,77,56,35,43,40,32,87,56,27,29.99,29.88,29.71,10,10,10,15,4,18,0.00,0,,152
2012-10-16,78,64,51,45,42,39,71,44,26,29.70,29.55,29.39,10,10,10,20,10,24,0.00,0,,230
2012-10-17,68,59,48,46,31,16,72,38,19,29.64,29.52,29.34,10,10,5,41,20,52,0.00,2,,283
2012-10-18,50,47,44,36,27,19,71,46,32,29.70,29.61,29.54,10,9,4,46,26,63,0.00,6,,296
2012-10-19,53,43,33,37,34,28,81,66,51,29.83,29.78,29.69,10,10,10,32,21,40,0.00,5,,323
2012-10-20,69,50,30,41,35,28,93,62,28,29.82,29.74,29.66,10,9,0,17,5,22,0.00,0,,123
2012-10-21,82,60,39,55,44,34,87,59,36,29.82,29.73,29.68,10,10,2,17,6,23,0.00,1,,94
2012-10-22,57,52,48,50,46,43,88,80,63,29.86,29.82,29.79,10,4,1,18,11,26,0.03,8,,354
2012-10-23,59,52,44,54,50,41,94,85,82,29.79,29.74,29.68,8,3,0,9,3,,0.00,8,,238
2012-10-24,53,48,44,52,46,36,94,84,71,29.83,29.79,29.76,10,5,0,20,10,28,0.02,8,Thunderstorm,6
2012-10-25,42,38,33,34,28,25,87,72,65,30.36,30.10,29.77,10,10,5,30,20,37,0.44,8,Thunderstorm,332
2012-10-26,42,36,30,25,23,21,70,60,49,30.52,30.44,30.35,10,10,10,14,10,20,0.00,7,,320
2012-10-27,44,34,24,27,25,19,86,65,49,30.40,30.30,30.22,10,10,10,13,5,17,0.00,3,,160
2012-10-28,53,43,33,30,28,25,75,56,38,30.28,30.21,30.15,10,10,10,22,9,26,0.00,4,,156
2012-10-29,60,50,39,32,29,27,70,50,31,30.18,30.11,30.06,10,10,10,16,11,22,0.00,1,,137
2012-10-30,55,45,35,30,29,27,75,59,38,30.08,30.05,30.02,10,10,10,14,7,17,0.00,2,,89
2012-10-31,64,47,30,39,32,25,86,61,37,30.06,30.02,29.97,10,10,2,8,2,,0.00,1,,144